A kedvenc márkánk termékinek tesztje, bemutatók és akciók

Időzített akció 12.31.- 01.02.

2017. december 31. - xiaomifan

Jelenetkezünk az ide év utolsó, de a jövő év első időzített akcióival is. Most nem csak Xiaomi termékeket hoztunk nektek, hanem mindent összeválogattunk, hogy ebben a három napban minden terméket láthassatok! Egyúttal ezzel szeretnénk Boldog Új Évet Kívánni Nektek!

 

 2017.12.31. - 2018.01.01.

 

Akció kezdete Termék neve/Linkje Akciós ár Kedvezmény kód Induló készlet
2017.12.31 13:00 4pcs Original Five Holding Razor Blade 0.99$ Xmas540 300
2017.12.31 13:00 ZT102 Digital Multimeter 9.99$ Xmas541 200
2017.12.31 14:00 Original DJI 3830mAh 11.4V Intelligent Flight Battery 89.99$ Xmas542 50
2017.12.31 14:00 Vernee Thor Plus 4G Phablet 119.99$ Xmas543 50
2017.12.31 15:00 LERAVAN Mi Home Electrical TENS Pulse Therapy Massage Machine 19.99$ Xmas544 100
2017.12.31 15:00 MAZE Alpha 4G Phablet 149.99$ Xmas545 50
2017.12.31 16:00 SZKINSTON 10-in-1 Universal USB Charging Sync Data Cable 1.69$ Xmas546 200
2017.12.31 16:00 Xiaomi Mi Notebook Pro 899.99$ Xmas547 50
2017.12.31 17:00 HOWSHOW 8.5-inch Magic LCD Electronic Drawing Tablet 5.99$ Xmas548 100
2017.12.31 17:00 HUINA 1550 1:14 2.4GHz 15CH RC Alloy Excavator 38.99$ Xmas549 50
2017.12.31 18:00 CHUWI Hi13 2 in 1 Tablet PC 299.99$ Xmas550 50
2017.12.31 18:00 Mini Digital LCD Indoor Thermometer Hygrometer 0.99$ Xmas551 300
2017.12.31 19:00 ZOP Power ZOP 1500mAh 11.1V 40C Battery XT60 Plug for RC Airplane / Boat 7.99$ Xmas552 100
2017.12.31 19:00 OUKITEL K3 4G Phablet 135.99$ Xmas553 50
2017.12.31 20:00 DIY 16 in 1 Sensor Module Kit for Raspberry 9.99$ Xmas554 100
2017.12.31 20:00 Ender Desktop 3D Printer Kit - EU PLUG BLACK 145.99$ Xmas555 50
2018.01.01 3:00 Waterproof Nylon Backpack - BLACK 21.99$ Xmas556 100
2018.01.01 3:00 Micro USB Male to USB Female OTG Cable Adapter 2PCS - BLACK 0.59$ Xmas557 200
2018.01.01 9:00 TEVISE 9008G Business Men Automatic Mechanical Watch - BLUE 20.99$ Xmas558 50
2018.01.01 9:00 Unique Design Multifunctional Attractive Key Chain Ring - COLORMIX 0.69$ Xmas559 100

 

Időzített akciók 2018.01.01-02.

 

 

Akció kezdete Termék neve/Linkje Akciós ár Kedvezmény kód Induló készlet
2018.01.01 13:00 Car Steering Wheel Phone Mount Holder 0.69$ HNYear001 500
2018.01.01 13:00 WUXING LZS85 LCD 8.5 inch Digital Graphic Tablet 7.99$ HNYear002 100
2018.01.01 14:00 HIGOLE GOLE1 Plus Mini PC - 4G + 128G EU PLUG 219.99$ HNYear003 50
2018.01.01 14:00 JJRC H47 ELFIE+ Foldable RC Pocket Selfie Drone - RTF - WITH THREE BATTERIES 42.99$ HNYear004 100
2018.01.01 15:00 GameSir G4s Bluetooth V4.0 / 2.4G Wireless / Wired Gamepad 35.99$ HNYear005 200
2018.01.01 15:00 Lenovo P8 ( TAB3 8 Plus ) Tablet PC 129.99$ HNYear006 100
2018.01.01 16:00 Original Xiaomi Piston In Ear Earphones Fresh Version 2.99$ HNYear007 300
2018.01.01 16:00 Alfawise H96 Pro+ TV Box 58.99$ HNYear008 100
2018.01.01 17:00 TS - BT35A08 HiFi Car Wireless Bluetooth 3.0 Audio Music Converter Receiver 1.99$ HNYear009 100
2018.01.01 17:00 Xiaomi Bluetooth 4.0 Smart Weight Scale 39.99$ HNYear010 100
2018.01.01 18:00 Xiaomi dafang 1080P Smart Monitor Camera 22.99$ HNYear011 200
2018.01.01 18:00 Type C to USB 3.0 Female Sync Cable 0.99$ HNYear012 500
2018.01.01 19:00 HKC C7000 27 inch Curved Screen 209.99$ HNYear013 50
2018.01.01 19:00 ZT102 Digital Multimeter 9.99$ HNYear014 200
2018.01.01 20:00 U8 Smartwatch Watch 5.99$ HNYear015 300
2018.01.01 20:00 Sunvell T95V PRO Portable Digital TV Box Android 7.1 OS - EU PLUG DEEP GRAY 55.99$ HNYear016 50
2018.01.02 3:00 Huawei P9 Lite ( VNS - L31 ) 4G Smartphone Global Version - GOLDEN 165.99$ HNYear017 100
2018.01.02 3:00 Bluedio H+ Wireless Bluetooth Headset with Mic - BLACK 18.99$ HNYear018 100
2018.01.02 9:00 CF006 Smart Watch Heart Rate Blood Pressure Blood Oxygen Monitoring Smart Bracelet - BLACK STEEL BAND 19.99$ HNYear019 100
2018.01.02 9:00 295mm Flexible Shaft Screwdriver Bit - BLACK 0.99$ HNYear020 200

 

 

Csatlakozz hozzánk, legyél te is Facebook oldalunk tagja, így mindig frissen tájékozódhatsz az új híreinkről és a kedvezményes akciókról!

A bejegyzés trackback címe:

https://mindenamixiaomi.blog.hu/api/trackback/id/tr5213535975

Kommentek:

A hozzászólások a vonatkozó jogszabályok  értelmében felhasználói tartalomnak minősülnek, értük a szolgáltatás technikai  üzemeltetője semmilyen felelősséget nem vállal, azokat nem ellenőrzi. Kifogás esetén forduljon a blog szerkesztőjéhez. Részletek a  Felhasználási feltételekben és az adatvédelmi tájékoztatóban.

Nincsenek hozzászólások.